Time;durP1;ratioP1;P1;durP2;ratioP2;P2;SDS_P1;SDS_P2;PMS_P1;PMS_P2;Temp;Humidity;BMP_temperature;BMP_pressure;BME280_temperature;BME280_humidity;BME280_pressure;Samples;Min_cycle;Max_cycle;Signal;HPM_P1;HPM_P2
2023/04/15 00:00:16;;;;;;;0.10;0.10;;;;;;;0.29;27.31;100851.44;4927339;29;20056;-65
2023/04/15 00:02:45;;;;;;;0.10;0.10;;;;;;;0.41;27.05;100860.75;4909660;29;20059;-64
2023/04/15 00:05:12;;;;;;;0.10;0.10;;;;;;;0.37;26.96;100861.31;4924812;29;20058;-65
2023/04/15 00:07:39;;;;;;;0.10;0.10;;;;;;;0.35;27.26;100866.03;4926736;29;20598;-65
2023/04/15 00:10:06;;;;;;;0.10;0.10;;;;;;;0.37;27.19;100867.53;4928328;29;20459;-65
2023/04/15 00:12:32;;;;;;;0.10;0.10;;;;;;;0.36;27.20;100867.69;4928794;29;20423;-65
2023/04/15 00:14:58;;;;;;;0.10;0.10;;;;;;;0.31;27.15;100873.63;4926471;29;20083;-64
2023/04/15 00:17:24;;;;;;;0.10;0.10;;;;;;;0.33;27.31;100874.31;4930039;29;20427;-65
2023/04/15 00:19:53;;;;;;;0.10;0.10;;;;;;;0.32;27.37;100883.41;4927261;29;20052;-65
2023/04/15 00:22:21;;;;;;;0.75;0.10;;;;;;;0.25;27.26;100877.03;4923509;29;20060;-65
2023/04/15 00:24:47;;;;;;;0.10;0.10;;;;;;;0.18;27.37;100890.38;4910792;29;20048;-64
2023/04/15 00:27:14;;;;;;;0.10;0.10;;;;;;;0.18;27.49;100890.38;4926018;29;20076;-64
2023/04/15 00:29:40;;;;;;;0.10;0.10;;;;;;;0.16;27.50;100889.72;4928426;29;20056;-65
2023/04/15 00:32:06;;;;;;;0.10;0.10;;;;;;;0.11;27.32;100892.13;4909309;29;20048;-65
2023/04/15 00:34:32;;;;;;;0.10;0.10;;;;;;;0.03;27.96;100893.00;4927275;29;20075;-64
2023/04/15 00:36:59;;;;;;;0.43;0.10;;;;;;;-0.01;27.82;100897.06;4926184;29;20071;-65
2023/04/15 00:39:27;;;;;;;0.10;0.10;;;;;;;-0.08;28.09;100888.03;4927782;29;20516;-64
2023/04/15 00:41:53;;;;;;;;;;;;;;;0.04;28.12;100910.81;4912203;29;20397;-64
2023/04/15 00:44:19;;;;;;;0.10;0.10;;;;;;;0.01;27.97;100904.94;4925447;29;19927;-65
2023/04/15 00:46:49;;;;;;;0.10;0.10;;;;;;;-0.03;28.13;100907.16;4910679;29;20103;-65
2023/04/15 00:49:17;;;;;;;0.15;0.10;;;;;;;-0.05;28.37;100901.97;4925714;29;20044;-64
2023/04/15 00:51:43;;;;;;;0.10;0.10;;;;;;;-0.04;28.36;100914.41;4910802;29;20055;-65
2023/04/15 00:54:10;;;;;;;0.10;0.10;;;;;;;-0.11;28.47;100917.97;4927318;29;20055;-65
2023/04/15 00:56:38;;;;;;;0.10;0.10;;;;;;;-0.16;28.79;100916.66;4924732;29;20056;-65
2023/04/15 00:59:05;;;;;;;0.10;0.10;;;;;;;-0.10;28.74;100922.34;4937775;29;20050;-65
2023/04/15 01:01:34;;;;;;;0.10;0.10;;;;;;;-0.18;28.89;100918.66;4947347;29;20102;-65
2023/04/15 01:04:01;;;;;;;0.10;0.10;;;;;;;-0.27;28.73;100919.72;4950437;29;20122;-65
2023/04/15 01:06:27;;;;;;;0.10;0.10;;;;;;;-0.31;28.91;100924.63;4916384;29;20058;-65
2023/04/15 01:08:53;;;;;;;0.10;0.10;;;;;;;-0.35;28.94;100927.81;4950676;29;20051;-65
2023/04/15 01:11:19;;;;;;;0.10;0.10;;;;;;;-0.34;28.98;100932.19;4932214;29;20047;-65
2023/04/15 01:13:47;;;;;;;0.10;0.10;;;;;;;-0.39;29.11;100939.94;4950072;29;20049;-65
2023/04/15 01:16:13;;;;;;;;;;;;;;;-0.32;29.05;100936.38;4950232;29;20191;-64
2023/04/15 01:18:40;;;;;;;0.10;0.10;;;;;;;-0.33;29.20;100937.41;4952053;29;20578;-65
2023/04/15 01:21:06;;;;;;;0.10;0.10;;;;;;;-0.43;29.27;100926.00;4951144;29;20066;-65
2023/04/15 01:23:35;;;;;;;0.10;0.10;;;;;;;-0.42;29.31;100941.13;4932502;29;20624;-65
2023/04/15 01:26:03;;;;;;;0.10;0.10;;;;;;;-0.38;29.06;100938.94;4950541;29;20432;-64
2023/04/15 01:28:30;;;;;;;0.10;0.10;;;;;;;-0.48;29.15;100939.13;4930981;29;20113;-65
2023/04/15 01:31:06;;;;;;;0.10;0.10;;;;;;;-0.53;29.46;100944.22;4933547;29;20071;-64
2023/04/15 01:33:36;;;;;;;0.10;0.10;;;;;;;-0.57;29.14;100955.28;4935689;29;20051;-65
2023/04/15 01:36:21;;;;;;;0.10;0.10;;;;;;;-0.65;29.52;100947.25;4949890;29;20066;-65
2023/04/15 01:38:47;;;;;;;0.10;0.10;;;;;;;-0.57;29.43;100957.16;4950393;29;20051;-65
2023/04/15 01:41:15;;;;;;;0.10;0.10;;;;;;;-0.55;29.63;100970.38;4950940;29;20057;-64
2023/04/15 01:43:41;;;;;;;0.10;0.10;;;;;;;-0.55;29.15;100959.63;4933910;29;20051;-64
2023/04/15 01:46:08;;;;;;;0.10;0.10;;;;;;;-0.56;29.35;100961.50;4932873;29;20057;-64
2023/04/15 01:48:34;;;;;;;0.10;0.10;;;;;;;-0.63;29.46;100969.41;4931932;29;20043;-65
2023/04/15 01:51:02;;;;;;;0.10;0.10;;;;;;;-0.77;29.76;100960.22;4931412;29;20107;-64
2023/04/15 01:53:28;;;;;;;0.25;0.10;;;;;;;-0.73;29.44;100966.06;4951110;29;20043;-65
2023/04/15 01:55:55;;;;;;;0.10;0.10;;;;;;;-0.69;29.48;100971.94;4933559;29;20915;-65
2023/04/15 01:58:22;;;;;;;0.10;0.10;;;;;;;-0.68;29.30;100968.25;4948362;28;20073;-65
2023/04/15 02:00:48;;;;;;;0.10;0.10;;;;;;;-0.75;29.36;100977.00;4929009;29;20043;-65
2023/04/15 02:03:14;;;;;;;0.10;0.10;;;;;;;-0.81;29.49;100974.16;4911405;29;20082;-65
2023/04/15 02:05:40;;;;;;;0.00;0.00;;;;;;;-0.78;29.60;100981.88;4929531;29;20044;-65
2023/04/15 02:08:06;;;;;;;0.10;0.10;;;;;;;-0.77;29.70;100989.78;4931873;29;20068;-65
2023/04/15 02:10:32;;;;;;;0.10;0.10;;;;;;;-0.82;29.30;100994.78;4932266;29;20613;-64
2023/04/15 02:12:58;;;;;;;0.10;0.10;;;;;;;-0.87;29.57;100991.78;4914822;29;20044;-64
2023/04/15 02:15:29;;;;;;;0.10;0.10;;;;;;;-0.84;29.63;100998.69;4913095;29;20056;-65
2023/04/15 02:17:55;;;;;;;0.10;0.10;;;;;;;-0.81;29.67;100996.47;4927826;29;20039;-65
2023/04/15 02:20:22;;;;;;;0.10;0.10;;;;;;;-0.78;29.48;101001.53;4927518;29;20043;-65
2023/04/15 02:22:48;;;;;;;0.10;0.10;;;;;;;-0.80;29.44;101002.69;4930477;29;20071;-65
2023/04/15 02:25:16;;;;;;;0.10;0.10;;;;;;;-0.83;29.51;101008.41;4928921;29;20051;-64
2023/04/15 02:27:43;;;;;;;0.10;0.10;;;;;;;-0.89;29.99;101013.44;4913043;29;20102;-65
2023/04/15 02:30:09;;;;;;;0.10;0.10;;;;;;;-0.91;29.90;101004.72;4916115;29;20052;-64
2023/04/15 02:32:37;;;;;;;0.10;0.10;;;;;;;-0.85;29.93;101005.88;4913076;29;20424;-65
2023/04/15 02:35:04;;;;;;;0.10;0.10;;;;;;;-0.86;29.88;101013.13;4912237;29;20067;-65
2023/04/15 02:37:31;;;;;;;0.10;0.10;;;;;;;-0.93;30.14;101022.03;4913830;29;20542;-68
2023/04/15 02:39:57;;;;;;;0.10;0.10;;;;;;;-1.02;30.35;101005.91;4929401;29;20060;-65
2023/04/15 02:42:26;;;;;;;0.08;0.08;;;;;;;-0.95;30.27;101018.63;4910554;29;20854;-65
2023/04/15 02:44:53;;;;;;;0.10;0.10;;;;;;;-0.91;30.46;101026.19;4911767;29;20085;-64
2023/04/15 02:47:22;;;;;;;0.10;0.10;;;;;;;-0.84;30.47;101038.97;4911095;29;20048;-65
2023/04/15 02:49:49;;;;;;;0.00;0.00;;;;;;;-0.78;30.36;101035.59;4926929;29;20154;-65
2023/04/15 02:52:15;;;;;;;0.10;0.10;;;;;;;-0.86;30.10;101037.28;4928742;29;20078;-64
2023/04/15 02:54:41;;;;;;;0.05;0.05;;;;;;;-0.86;30.38;101034.59;4934875;28;20454;-64
2023/04/15 02:57:07;;;;;;;0.10;0.10;;;;;;;-0.79;30.29;101048.16;4938379;29;20423;-65
2023/04/15 02:59:33;;;;;;;0.10;0.10;;;;;;;-0.78;30.10;101041.81;4927789;29;20142;-65
2023/04/15 03:01:59;;;;;;;0.10;0.10;;;;;;;-0.80;30.28;101043.81;4927375;29;20055;-66
2023/04/15 03:04:28;;;;;;;0.10;0.10;;;;;;;-1.05;30.26;101014.28;4926473;29;20430;-64
2023/04/15 03:06:56;;;;;;;0.10;0.10;;;;;;;-0.86;30.13;101047.19;4929621;29;20047;-64
2023/04/15 03:09:22;;;;;;;0.10;0.10;;;;;;;-0.83;30.31;101065.63;4912308;29;20471;-65
2023/04/15 03:11:50;;;;;;;0.10;0.10;;;;;;;-0.85;30.18;101059.59;4928262;29;20086;-65
2023/04/15 03:14:16;;;;;;;;;;;;;;;-0.86;30.23;101064.16;4930111;29;20096;-65
2023/04/15 03:16:45;;;;;;;0.10;0.10;;;;;;;-0.85;30.45;101073.03;4912089;29;19932;-65
2023/04/15 03:19:12;;;;;;;0.10;0.10;;;;;;;-0.87;30.03;101067.81;4928520;28;20047;-65
2023/04/15 03:21:41;;;;;;;0.10;0.10;;;;;;;-0.83;30.39;101052.22;4940292;29;20439;-65
2023/04/15 03:24:09;;;;;;;0.10;0.10;;;;;;;-0.77;30.20;101064.13;4931345;29;20074;-65
2023/04/15 03:26:35;;;;;;;0.28;0.10;;;;;;;-0.69;30.15;101066.81;4935336;29;20047;-65
2023/04/15 03:29:08;;;;;;;0.10;0.10;;;;;;;-0.67;30.11;101083.59;4928735;29;20542;-65
2023/04/15 03:31:34;;;;;;;0.10;0.10;;;;;;;-0.62;30.23;101072.34;4947194;29;20565;-65
2023/04/15 03:34:00;;;;;;;0.30;0.20;;;;;;;-0.73;30.31;101052.88;4932571;29;20043;-64
2023/04/15 03:36:31;;;;;;;0.10;0.10;;;;;;;-0.49;29.97;101085.25;4928441;29;20053;-65
2023/04/15 03:38:57;;;;;;;0.10;0.10;;;;;;;-0.53;30.07;101059.75;4944326;29;20511;-65
2023/04/15 03:41:25;;;;;;;0.20;0.20;;;;;;;-0.43;29.82;101088.13;4927747;29;20204;-65
2023/04/15 03:43:51;;;;;;;0.10;0.10;;;;;;;-0.44;29.85;101080.22;4948208;29;20047;-65
2023/04/15 03:46:17;;;;;;;0.10;0.10;;;;;;;-0.41;29.69;101096.00;4949102;29;20043;-65
2023/04/15 03:48:43;;;;;;;0.10;0.10;;;;;;;-0.38;29.73;101090.28;4947055;29;20047;-65
2023/04/15 03:51:09;;;;;;;0.10;0.10;;;;;;;-0.27;29.50;101099.84;4948176;29;20138;-65
2023/04/15 03:53:35;;;;;;;0.10;0.10;;;;;;;-0.29;29.73;101093.81;4942864;29;20040;-65
2023/04/15 03:56:01;;;;;;;0.10;0.10;;;;;;;-0.20;29.23;101103.50;4945659;29;20534;-65
2023/04/15 03:58:29;;;;;;;0.10;0.10;;;;;;;-0.17;29.25;101094.28;4947697;29;20186;-65
2023/04/15 04:00:55;;;;;;;0.10;0.10;;;;;;;-0.17;29.16;101102.34;4943717;29;20070;-65
2023/04/15 04:03:21;;;;;;;0.10;0.10;;;;;;;-0.14;29.26;101102.00;4945401;29;20138;-66
2023/04/15 04:05:47;;;;;;;0.10;0.10;;;;;;;-0.06;29.18;101098.44;4946410;29;20051;-65
2023/04/15 04:08:15;;;;;;;0.10;0.10;;;;;;;-0.01;29.12;101102.28;4944589;29;20043;-65
2023/04/15 04:10:41;;;;;;;0.10;0.10;;;;;;;-0.06;28.95;101083.16;4941095;28;20055;-65
2023/04/15 04:13:07;;;;;;;0.20;0.10;;;;;;;0.09;28.73;101101.28;4931954;29;20486;-65
2023/04/15 04:15:35;;;;;;;0.10;0.10;;;;;;;0.09;28.69;101115.53;4926190;29;20109;-64
2023/04/15 04:18:00;;;;;;;;;;;;;;;0.16;28.53;101109.44;4927309;29;20070;-65
2023/04/15 04:20:26;;;;;;;0.20;0.20;;;;;;;0.18;28.35;101112.84;4928392;29;20386;-64
2023/04/15 04:22:52;;;;;;;0.20;0.20;;;;;;;0.22;28.52;101122.22;4928132;29;20056;-65
2023/04/15 04:25:18;;;;;;;0.10;0.10;;;;;;;0.18;28.50;101110.97;4908282;29;20118;-65
2023/04/15 04:27:45;;;;;;;0.10;0.10;;;;;;;0.18;28.70;101104.75;4930860;29;20059;-65
2023/04/15 04:30:11;;;;;;;0.10;0.10;;;;;;;0.37;28.39;101125.88;4927605;29;20051;-65
2023/04/15 04:32:39;;;;;;;0.20;0.20;;;;;;;0.42;28.13;101120.78;4927766;29;20262;-64
2023/04/15 04:35:06;;;;;;;0.10;0.10;;;;;;;0.47;28.23;101122.09;4936964;28;20049;-65
2023/04/15 04:37:31;;;;;;;0.27;0.27;;;;;;;0.48;28.00;101118.44;4934871;29;20435;-65
2023/04/15 04:39:57;;;;;;;0.10;0.10;;;;;;;0.56;28.01;101123.75;4934424;29;20229;-65
2023/04/15 04:42:23;;;;;;;0.20;0.20;;;;;;;0.66;27.76;101113.63;4933753;29;20707;-65
2023/04/15 04:44:50;;;;;;;0.10;0.10;;;;;;;0.73;27.69;101123.66;4933565;29;20051;-64
2023/04/15 04:47:16;;;;;;;0.20;0.20;;;;;;;0.81;27.58;101129.03;4932443;29;20138;-65
2023/04/15 04:49:44;;;;;;;0.20;0.20;;;;;;;0.92;27.61;101125.91;4932855;29;20130;-65
2023/04/15 04:52:09;;;;;;;;;;;;;;;0.98;27.38;101121.66;4934494;29;20162;-64
2023/04/15 04:54:36;;;;;;;0.17;0.17;;;;;;;1.02;27.24;101120.31;4916669;29;20390;-66
2023/04/15 04:57:02;;;;;;;0.13;0.13;;;;;;;1.06;27.17;101123.47;4932182;29;20059;-65
2023/04/15 04:59:28;;;;;;;0.10;0.10;;;;;;;1.08;27.25;101119.56;4933815;29;20081;-65
2023/04/15 05:01:54;;;;;;;0.20;0.20;;;;;;;1.10;27.30;101122.09;4931135;29;20058;-65
2023/04/15 05:04:20;;;;;;;0.10;0.10;;;;;;;1.12;27.31;101122.75;4933706;29;20471;-65
2023/04/15 05:06:47;;;;;;;0.30;0.22;;;;;;;1.09;27.18;101132.03;4932673;29;20427;-65
2023/04/15 05:09:13;;;;;;;0.10;0.10;;;;;;;1.06;27.29;101120.75;4932826;29;20048;-65
2023/04/15 05:11:40;;;;;;;0.20;0.20;;;;;;;1.03;27.26;101129.22;4930436;29;20115;-65
2023/04/15 05:14:06;;;;;;;0.20;0.10;;;;;;;1.07;27.29;101134.06;4934061;28;20070;-65
2023/04/15 05:16:32;;;;;;;0.20;0.20;;;;;;;1.09;27.09;101128.47;4934721;29;20458;-65
2023/04/15 05:18:58;;;;;;;0.20;0.20;;;;;;;1.13;27.07;101132.50;4921871;29;20519;-65
2023/04/15 05:21:25;;;;;;;0.20;0.20;;;;;;;1.15;27.12;101127.78;4924827;29;20055;-65
2023/04/15 05:23:52;;;;;;;0.20;0.20;;;;;;;1.20;26.97;101132.63;4934269;29;20103;-65
2023/04/15 05:26:18;;;;;;;0.13;0.13;;;;;;;1.18;27.25;101134.69;4932491;29;20150;-65
2023/04/15 05:28:45;;;;;;;0.20;0.20;;;;;;;1.22;27.00;101139.50;4935342;29;20059;-65
2023/04/15 05:31:11;;;;;;;0.20;0.20;;;;;;;1.27;26.88;101145.22;4939743;28;20048;-65
2023/04/15 05:33:37;;;;;;;0.30;0.30;;;;;;;1.31;27.00;101139.44;4935264;29;20059;-65
2023/04/15 05:36:03;;;;;;;0.40;0.20;;;;;;;1.31;26.95;101136.75;4953737;29;20047;-65
2023/04/15 05:38:29;;;;;;;0.20;0.20;;;;;;;1.38;26.78;101148.47;4953639;29;20091;-65
2023/04/15 05:40:56;;;;;;;0.20;0.20;;;;;;;1.36;27.14;101147.81;4945038;29;20071;-65
2023/04/15 05:43:22;;;;;;;0.43;0.20;;;;;;;1.37;27.00;101144.97;4950752;28;20087;-65
2023/04/15 05:45:48;;;;;;;0.20;0.20;;;;;;;1.48;27.20;101149.06;4952156;29;20047;-65
2023/04/15 05:48:15;;;;;;;0.10;0.10;;;;;;;1.52;26.89;101150.38;4952925;29;20549;-65
2023/04/15 05:50:41;;;;;;;0.20;0.20;;;;;;;1.62;27.05;101158.22;4951061;29;20566;-65
2023/04/15 05:53:07;;;;;;;0.20;0.20;;;;;;;1.68;26.84;101154.81;4935110;29;20146;-65
2023/04/15 05:55:33;;;;;;;0.20;0.20;;;;;;;1.72;26.73;101167.91;4948475;29;20622;-66
2023/04/15 05:58:02;;;;;;;0.20;0.20;;;;;;;1.70;26.65;101143.81;4948528;28;20494;-65
2023/04/15 06:00:28;;;;;;;0.20;0.20;;;;;;;1.82;26.68;101160.41;4941558;28;20055;-65
2023/04/15 06:02:55;;;;;;;0.20;0.20;;;;;;;2.00;26.37;101151.13;4933277;29;20055;-65
2023/04/15 06:05:21;;;;;;;0.10;0.10;;;;;;;2.11;26.29;101165.00;4934033;29;20056;-65
2023/04/15 06:07:48;;;;;;;0.20;0.20;;;;;;;2.26;26.10;101172.28;4951482;29;20502;-65
2023/04/15 06:10:14;;;;;;;0.57;0.22;;;;;;;2.35;25.98;101167.63;4951176;28;20087;-65
2023/04/15 06:12:40;;;;;;;0.20;0.20;;;;;;;2.57;25.72;101165.84;4948037;29;20586;-66
2023/04/15 06:15:09;;;;;;;0.20;0.20;;;;;;;2.82;25.53;101166.34;4952528;29;20086;-65
2023/04/15 06:17:35;;;;;;;0.20;0.20;;;;;;;3.00;25.25;101169.66;4950612;29;20063;-65
2023/04/15 06:20:01;;;;;;;0.20;0.20;;;;;;;3.14;25.23;101173.34;4953542;29;20043;-65
2023/04/15 06:22:28;;;;;;;0.20;0.20;;;;;;;3.19;25.18;101174.44;4951017;29;20055;-65
2023/04/15 06:24:54;;;;;;;0.20;0.20;;;;;;;3.08;25.03;101173.09;4945190;28;20562;-65
2023/04/15 06:27:21;;;;;;;0.10;0.10;;;;;;;2.95;25.05;101160.25;4936215;29;20051;-65
2023/04/15 06:29:48;;;;;;;0.13;0.13;;;;;;;3.23;25.04;101175.72;4928427;29;20107;-65
2023/04/15 06:32:15;;;;;;;1.08;0.30;;;;;;;3.49;25.24;101173.47;4928074;29;20052;-65
2023/04/15 06:34:41;;;;;;;0.28;0.28;;;;;;;3.72;24.78;101165.13;4930576;29;20218;-65
2023/04/15 06:37:09;;;;;;;0.28;0.28;;;;;;;3.83;24.41;101172.72;4929956;29;20119;-65
2023/04/15 06:39:36;;;;;;;0.22;0.22;;;;;;;3.83;24.29;101172.72;4927516;29;20083;-65
2023/04/15 06:42:02;;;;;;;0.25;0.25;;;;;;;4.04;24.28;101170.16;4925513;29;20590;-65
2023/04/15 06:44:29;;;;;;;0.30;0.30;;;;;;;4.25;23.82;101167.38;4911223;29;20571;-65
2023/04/15 06:46:55;;;;;;;0.20;0.20;;;;;;;4.42;23.40;101168.94;4928863;29;20134;-65
2023/04/15 06:49:22;;;;;;;0.20;0.20;;;;;;;4.51;23.60;101179.41;4928076;29;20639;-65
2023/04/15 06:51:50;;;;;;;0.30;0.30;;;;;;;4.74;23.07;101178.25;4930994;28;20153;-65
2023/04/15 06:54:16;;;;;;;0.20;0.20;;;;;;;4.86;23.06;101174.97;4937843;28;20146;-66
2023/04/15 06:56:42;;;;;;;0.20;0.20;;;;;;;5.00;22.96;101179.38;4948253;29;20058;-65
2023/04/15 06:59:08;;;;;;;0.30;0.30;;;;;;;5.18;22.89;101173.41;4947563;29;20050;-66
2023/04/15 07:01:35;;;;;;;0.20;0.20;;;;;;;5.42;22.62;101178.44;4930079;29;20330;-65
2023/04/15 07:04:01;;;;;;;0.20;0.20;;;;;;;5.50;22.20;101178.22;4948587;29;20059;-65
2023/04/15 07:06:28;;;;;;;0.20;0.20;;;;;;;5.63;22.13;101180.97;4946995;29;20566;-65
2023/04/15 07:08:54;;;;;;;0.57;0.30;;;;;;;5.80;21.71;101180.53;4947447;29;20048;-65
2023/04/15 07:11:21;;;;;;;0.20;0.20;;;;;;;5.89;21.25;101183.88;4946413;29;20066;-65
2023/04/15 07:13:47;;;;;;;0.30;0.30;;;;;;;6.00;21.23;101179.69;4940873;28;20066;-65
2023/04/15 07:16:13;;;;;;;0.20;0.20;;;;;;;6.03;21.30;101176.59;4929571;29;20107;-65
2023/04/15 07:18:39;;;;;;;0.15;0.15;;;;;;;6.08;20.94;101180.34;4923275;29;20043;-65
2023/04/15 07:21:05;;;;;;;0.43;0.22;;;;;;;6.22;21.05;101181.16;4908690;29;20056;-65
2023/04/15 07:23:32;;;;;;;0.20;0.20;;;;;;;6.39;20.88;101167.94;4925104;29;20114;-65
2023/04/15 07:25:58;;;;;;;0.10;0.10;;;;;;;6.41;20.94;101175.91;4927256;29;20103;-65
2023/04/15 07:28:25;;;;;;;0.20;0.20;;;;;;;6.32;21.23;101178.00;4932743;28;20679;-65
2023/04/15 07:30:51;;;;;;;0.32;0.20;;;;;;;6.38;20.66;101182.56;4941807;29;20542;-65
2023/04/15 07:36:19;;;;;;;0.20;0.20;;;;;;;6.56;20.80;101172.09;4945885;29;20059;-65
2023/04/15 07:38:47;;;;;;;0.30;0.30;;;;;;;6.86;20.27;101175.09;4940724;28;20129;-65
2023/04/15 07:41:14;;;;;;;0.20;0.20;;;;;;;7.17;19.65;101175.38;4931862;29;20063;-65
2023/04/15 07:43:40;;;;;;;0.20;0.20;;;;;;;7.12;19.46;101169.75;4927287;29;20055;-66
2023/04/15 07:46:07;;;;;;;0.20;0.20;;;;;;;7.19;19.15;101165.94;4922580;29;20082;-66
2023/04/15 07:48:33;;;;;;;0.28;0.20;;;;;;;7.00;19.31;101165.00;4927414;29;20060;-65
2023/04/15 07:50:59;;;;;;;0.20;0.20;;;;;;;7.06;19.27;101155.13;4926796;29;20052;-65
2023/04/15 07:53:25;;;;;;;0.20;0.20;;;;;;;7.13;18.89;101161.34;4926217;29;20057;-65
2023/04/15 07:55:59;;;;;;;0.30;0.30;;;;;;;7.19;18.45;101165.94;4924804;29;20055;-65
2023/04/15 07:58:25;;;;;;;;;;;;;;;7.31;18.24;101163.34;4926875;29;20052;-65
2023/04/15 08:00:51;;;;;;;0.22;0.22;;;;;;;7.58;18.24;101165.03;4936724;29;19933;-65
2023/04/15 08:03:17;;;;;;;0.20;0.20;;;;;;;7.94;18.25;101158.88;4945190;29;20057;-65
2023/04/15 08:05:43;;;;;;;0.20;0.20;;;;;;;8.17;18.17;101162.00;4942895;28;20054;-66
2023/04/15 08:08:09;;;;;;;0.30;0.30;;;;;;;8.42;17.76;101159.22;4944520;29;20051;-65
2023/04/15 08:10:36;;;;;;;0.30;0.30;;;;;;;8.54;17.25;101167.50;4945887;29;20086;-65
2023/04/15 08:13:04;;;;;;;0.30;0.30;;;;;;;8.56;17.70;101165.38;4947306;29;20052;-66
2023/04/15 08:15:31;;;;;;;0.30;0.30;;;;;;;8.86;17.16;101161.03;4943891;29;20058;-65
2023/04/15 08:17:59;;;;;;;0.20;0.20;;;;;;;9.29;17.02;101153.72;4944671;29;20515;-65
2023/04/15 08:20:25;;;;;;;0.30;0.30;;;;;;;9.61;16.73;101161.63;4947467;29;20043;-65
2023/04/15 08:22:52;;;;;;;0.30;0.30;;;;;;;10.06;16.35;101162.94;4945898;29;20055;-65
2023/04/15 08:25:21;;;;;;;0.30;0.30;;;;;;;10.53;15.97;101158.53;4944804;29;20546;-66
2023/04/15 08:27:47;;;;;;;0.20;0.20;;;;;;;10.60;15.60;101153.75;4934985;28;20307;-65
2023/04/15 08:30:15;;;;;;;0.30;0.30;;;;;;;10.49;15.94;101160.94;4944434;29;20138;-65
2023/04/15 08:32:55;;;;;;;;;;;;;;;10.67;15.88;101156.38;4948161;29;20059;-65
2023/04/15 08:35:40;;;;;;;0.30;0.30;;;;;;;10.93;15.57;101157.69;4946472;29;20191;-65
2023/04/15 08:38:06;;;;;;;0.30;0.30;;;;;;;11.11;15.15;101162.16;4945933;29;20047;-65
2023/04/15 08:40:39;;;;;;;0.40;0.40;;;;;;;11.16;15.02;101158.66;4931280;29;20051;-65
2023/04/15 08:43:11;;;;;;;0.35;0.35;;;;;;;11.18;14.82;101160.09;4931703;29;20059;-66
2023/04/15 08:45:39;;;;;;;0.50;0.50;;;;;;;11.58;14.76;101162.97;4939376;29;20066;-65
2023/04/15 08:48:06;;;;;;;0.40;0.40;;;;;;;12.38;14.60;101148.28;4945765;29;20123;-65
2023/04/15 08:50:32;;;;;;;0.30;0.30;;;;;;;12.52;14.62;101141.34;4942032;29;20051;-65
2023/04/15 08:52:59;;;;;;;0.40;0.40;;;;;;;12.65;13.75;101155.75;4944036;29;20138;-65
2023/04/15 08:55:33;;;;;;;0.40;0.40;;;;;;;12.49;14.11;101139.09;4941897;29;20062;-65
2023/04/15 08:58:01;;;;;;;0.40;0.40;;;;;;;11.97;13.99;101132.06;4943054;29;20087;-65
2023/04/15 09:00:28;;;;;;;0.30;0.30;;;;;;;11.73;14.04;101143.19;4943250;29;20066;-65
2023/04/15 09:02:55;;;;;;;0.30;0.30;;;;;;;11.33;14.03;101136.78;4943502;29;20557;-65
2023/04/15 09:05:21;;;;;;;0.40;0.40;;;;;;;11.21;14.46;101137.69;4942754;29;20413;-65
2023/04/15 09:07:49;;;;;;;0.40;0.40;;;;;;;11.56;14.46;101140.47;4942284;29;20303;-65
2023/04/15 09:10:15;;;;;;;0.30;0.30;;;;;;;11.87;14.17;101140.97;4939550;29;20594;-65
2023/04/15 09:12:41;;;;;;;0.40;0.40;;;;;;;12.00;14.33;101137.03;4941029;29;20070;-65
2023/04/15 09:15:11;;;;;;;0.40;0.40;;;;;;;12.30;14.43;101133.09;4598711;28;10000432;-65
2023/04/15 09:17:42;;;;;;;0.40;0.40;;;;;;;12.63;13.98;101123.88;4941117;28;20138;-65
2023/04/15 09:20:12;;;;;;;0.30;0.30;;;;;;;12.50;13.93;101129.78;4946746;29;20051;-65
2023/04/15 09:22:38;;;;;;;0.30;0.30;;;;;;;12.42;13.86;101131.06;4965309;28;20299;-65
2023/04/15 09:25:27;;;;;;;0.40;0.40;;;;;;;12.12;13.83;101129.56;4949330;28;20142;-67
2023/04/15 09:27:55;;;;;;;0.30;0.30;;;;;;;11.81;14.02;101139.22;4944572;28;20525;-65
2023/04/15 09:30:22;;;;;;;0.30;0.30;;;;;;;11.78;14.25;101133.16;4934832;28;20059;-66
2023/04/15 09:32:56;;;;;;;0.40;0.40;;;;;;;11.94;14.28;101127.91;4931831;28;20047;-65
2023/04/15 09:35:26;;;;;;;0.40;0.40;;;;;;;12.04;14.22;101124.50;4933642;28;20054;-65
2023/04/15 09:38:00;;;;;;;0.40;0.40;;;;;;;11.87;13.91;101116.31;4927343;29;20051;-65
2023/04/15 09:40:34;;;;;;;0.40;0.40;;;;;;;11.75;13.92;101130.91;4929314;29;20598;-65
2023/04/15 09:43:03;;;;;;;0.40;0.40;;;;;;;11.76;13.95;101129.84;4929098;29;20055;-64
2023/04/15 09:45:30;;;;;;;0.50;0.50;;;;;;;11.75;13.86;101124.59;4929725;29;20086;-65
2023/04/15 09:47:57;;;;;;;0.50;0.40;;;;;;;11.89;13.61;101130.56;4926303;29;20048;-65
2023/04/15 09:50:27;;;;;;;0.35;0.35;;;;;;;12.08;13.52;101122.09;4928505;29;20047;-66
2023/04/15 09:52:53;;;;;;;0.40;0.40;;;;;;;12.25;13.61;101120.13;4929723;29;20047;-65
2023/04/15 09:55:19;;;;;;;0.30;0.30;;;;;;;12.45;13.24;101116.84;4940181;28;20055;-65
2023/04/15 09:57:46;;;;;;;0.30;0.30;;;;;;;12.54;13.37;101114.47;4928429;29;20040;-65
2023/04/15 10:00:13;;;;;;;0.40;0.40;;;;;;;12.78;13.24;101122.41;4930581;29;20503;-65
2023/04/15 10:02:43;;;;;;;0.40;0.40;;;;;;;12.90;13.07;101120.34;4929508;29;20058;-65
2023/04/15 10:05:13;;;;;;;0.40;0.40;;;;;;;13.09;13.32;101119.97;4930065;29;20052;-65
2023/04/15 10:07:41;;;;;;;0.40;0.40;;;;;;;13.08;13.02;101125.75;4930968;29;20056;-65
2023/04/15 10:10:08;;;;;;;0.63;0.47;;;;;;;13.15;13.16;101115.38;4928233;29;20052;-65
2023/04/15 10:12:36;;;;;;;0.40;0.40;;;;;;;13.37;13.20;101123.53;4928667;29;20542;-65
2023/04/15 10:15:04;;;;;;;0.40;0.40;;;;;;;13.71;13.16;101123.28;4934009;29;20452;-65
2023/04/15 10:17:34;;;;;;;0.70;0.50;;;;;;;13.80;13.26;101114.56;4915563;29;20052;-65
2023/04/15 10:20:01;;;;;;;0.40;0.40;;;;;;;14.15;13.12;101115.88;4933492;29;20566;-65
2023/04/15 10:22:27;;;;;;;0.63;0.40;;;;;;;14.54;12.51;101121.00;4931998;29;20051;-65
2023/04/15 10:24:56;;;;;;;0.40;0.40;;;;;;;14.68;12.92;101126.84;4929633;29;20056;-65
2023/04/15 10:27:22;;;;;;;0.50;0.50;;;;;;;15.03;12.44;101113.47;4930932;29;20055;-66
2023/04/15 10:29:51;;;;;;;0.50;0.50;;;;;;;15.35;12.12;101104.13;4936664;28;20055;-65
2023/04/15 10:32:20;;;;;;;1.77;0.60;;;;;;;15.19;12.30;101119.00;4951650;29;20047;-66
2023/04/15 10:34:47;;;;;;;0.50;0.50;;;;;;;15.13;12.22;101105.19;4931821;29;20055;-65
2023/04/15 10:37:20;;;;;;;0.50;0.50;;;;;;;15.17;11.98;101113.75;4932840;29;20485;-65
2023/04/15 10:39:46;;;;;;;0.60;0.60;;;;;;;15.08;12.30;101107.16;4932368;29;20431;-65
2023/04/15 10:42:15;;;;;;;0.70;0.70;;;;;;;15.26;12.50;101116.78;4952290;29;20051;-66
2023/04/15 10:44:43;;;;;;;0.65;0.65;;;;;;;16.01;12.11;101116.22;4950556;29;20043;-66
2023/04/15 10:47:11;;;;;;;0.70;0.70;;;;;;;16.69;11.75;101116.78;4947579;29;20055;-66
2023/04/15 10:49:44;;;;;;;0.75;0.75;;;;;;;17.12;11.25;101107.97;4933164;29;20051;-66
2023/04/15 10:52:10;;;;;;;0.80;0.80;;;;;;;17.72;11.18;101106.94;4950348;29;20141;-66
2023/04/15 10:54:38;;;;;;;0.85;0.85;;;;;;;18.12;10.67;101117.09;4948705;29;20102;-66
2023/04/15 10:57:12;;;;;;;0.88;0.88;;;;;;;18.77;10.61;101114.88;4949488;29;20057;-66
2023/04/15 11:00:06;;;;;;;0.80;0.80;;;;;;;19.56;9.67;101105.09;4951411;29;20102;-67
2023/04/15 11:02:40;;;;;;;1.00;1.00;;;;;;;19.68;9.92;101112.91;4941419;28;20610;-66
2023/04/15 11:05:07;;;;;;;1.00;1.00;;;;;;;19.62;9.60;101114.97;4937942;29;20307;-66
2023/04/15 11:07:38;;;;;;;1.00;1.00;;;;;;;19.58;9.81;101113.09;4930097;29;20427;-66
2023/04/15 11:10:49;;;;;;;1.10;1.00;;;;;;;19.54;9.42;101105.38;4929993;29;20486;-66
2023/04/15 11:13:16;;;;;;;1.10;1.10;;;;;;;19.59;9.75;101106.41;4928574;29;20199;-66
2023/04/15 11:15:44;;;;;;;1.00;1.00;;;;;;;20.46;9.32;101114.22;4928700;29;20047;-66
2023/04/15 11:18:12;;;;;;;1.08;1.08;;;;;;;20.72;9.66;101099.78;4927925;29;20062;-67
2023/04/15 11:20:39;;;;;;;1.10;1.10;;;;;;;21.20;9.04;101099.25;4928717;29;20103;-66
2023/04/15 11:23:06;;;;;;;1.10;1.10;;;;;;;21.25;8.56;101103.88;4929886;29;20055;-66
2023/04/15 11:25:38;;;;;;;1.40;1.20;;;;;;;21.62;8.90;101096.25;4929020;29;20059;-67
2023/04/15 11:28:11;;;;;;;1.20;1.20;;;;;;;21.81;8.60;101087.69;4928854;29;20062;-66
2023/04/15 11:30:39;;;;;;;1.15;1.15;;;;;;;21.24;8.41;101097.47;4926918;29;20614;-66
2023/04/15 11:33:08;;;;;;;1.20;1.20;;;;;;;21.34;8.86;101090.81;4929867;29;20060;-66
2023/04/15 11:35:34;;;;;;;1.10;1.10;;;;;;;22.06;8.67;101090.09;4930367;29;20455;-66